Aérodrome :
LOGIN :

S'inscrire | Disclaimer

   EN    FR    IT 

 










Légende :    VFR   VFR Marginal   IFR   IFR Intensif   IFR Très Intensif
Visi : 
Plafond : 
>= 8 km
>= 3000ft
5 à 8 km
1000 à 3000 ft
1500m à 5 km
500 à 1000 ft
800 à 1500m
200 à 500 ft
< 800m
< 200 ft
Symboles :   Orages  Brouillard  Fortes neiges  Fortes précipitations  Vent > 20 kt
SIGMETs :   Divers  Orages  Givrage  Turbulence  Onde Orograph.  Cendres Volcan.







- Altitude de l'aérodrome : 297 ft
- Code IATA : UIP
- Voir les cartes d'approche


LFRQ - Quimper Pluguffan

DERNIER METAR :
  • 280700Z AUTO 34006KT 9999 BKN009 OVC030 15/14 Q1000 TEMPO SHRA BKN014 SCT020TCU

METARs EXPIRÉS :
  • 280630Z AUTO 34005KT 9999 OVC031 15/14 Q1000 TEMPO SHRA BKN014 SCT020TCU
  • 280600Z AUTO 33006KT 9999 FEW002 BKN025 BKN031 14/13 Q1000 TEMPO SHRA BKN014 SCT020TCU
  • 280530Z AUTO 27004KT 9999 SCT005 BKN020 BKN026 14/13 Q1000 TEMPO SHRA BKN014 SCT020TCU
  • 280500Z AUTO 29004KT 9999 FEW005 13/12 Q1000
  • 280430Z AUTO 28004KT 9999 FEW007 SCT015 BKN240 14/13 Q1000

TAF TAF LFRQ
Valide du 28 à 06h jusqu'au 28 à 15h UTC


280500Z 2806/2815 31006KT 9999 SCT015 SCT025
PROB30
TEMPO 2806/2815 SHRA BKN014 SCT020TCU
TEMPO 2814/2815 32012G23KT
Pas de NOTAMs connus pour ce terrain.
1 SIGMET publié pour la FIR Brest (LFRR) :
 
Orages noyés dans la masse
LFRR SIGMET 3 VALID 280700/280800 LFPW
LFRR BREST FIR/UIR EMBD TS OBS AT 0700Z WI N4345 W00245 - N4415 W00430 - N4515 W00400 - N4600 W00545 - N4700 W00500 - N4545 W00215 TOP FL300 MOV E 25KT NC=



MET'MAP, la Météo Aéronautique d'un coup d'oeil ! - Copyright ORBIFLY Décembre 2007 - Disclaimer

ORBIFLY MET'MAP TEAM :

Programmation & Développement : Alexandra Zaïnal
Conception & Développement : Baudouin d'Aumeries
Co-Programmation & Développement : Marc-Olivier Méhu
Soutien technique & logistique : Manuel Goepfert

Contact : metmap@orbifly.com




SOURCES & CREDITS :

   NOAA